Time;durP1;ratioP1;P1;durP2;ratioP2;P2;SDS_P1;SDS_P2;PMS_P1;PMS_P2;Temp;Humidity;BMP_temperature;BMP_pressure;BME280_temperature;BME280_humidity;BME280_pressure;Samples;Min_cycle;Max_cycle;Signal;HPM_P1;HPM_P2
2023/07/30 00:08:24;;;;;;;8.85;1.85;;;17.00;1.00;;;;;;20738156;28;20037;-41
2023/07/30 00:18:25;;;;;;;7.93;2.22;;;16.90;1.00;;;;;;20757375;28;20068;-41
2023/07/30 00:28:26;;;;;;;6.50;2.00;;;16.90;1.00;;;;;;20753989;28;20045;-41
2023/07/30 00:38:27;;;;;;;8.27;2.00;;;16.80;1.00;;;;;;20754254;28;20052;-41
2023/07/30 00:48:29;;;;;;;8.18;2.00;;;16.80;1.00;;;;;;20754766;28;20045;-41
2023/07/30 00:58:31;;;;;;;5.30;2.20;;;16.70;1.00;;;;;;20752625;28;20049;-41
2023/07/30 01:08:32;;;;;;;9.68;2.08;;;16.50;1.00;;;;;;20750564;28;20044;-41
2023/07/30 01:18:33;;;;;;;9.77;2.47;;;16.60;1.00;;;;;;20752006;28;20038;-41
2023/07/30 01:28:39;;;;;;;8.57;2.65;;;16.50;1.00;;;;;;20749302;28;20044;-41
2023/07/30 01:38:41;;;;;;;13.02;2.40;;;16.70;1.00;;;;;;20748773;28;20041;-41
2023/07/30 01:48:42;;;;;;;8.73;2.42;;;16.70;1.00;;;;;;20752154;28;20324;-42
2023/07/30 01:58:43;;;;;;;8.20;2.55;;;16.70;1.00;;;;;;20749105;28;20037;-41
2023/07/30 02:08:44;;;;;;;12.38;2.97;;;16.70;1.00;;;;;;20746036;28;20505;-41
2023/07/30 02:18:45;;;;;;;10.65;2.95;;;16.60;1.00;;;;;;20747278;28;20046;-41
2023/07/30 02:28:46;;;;;;;11.00;3.00;;;16.70;1.00;;;;;;20743918;28;20030;-41
2023/07/30 02:38:47;;;;;;;9.10;3.05;;;16.70;1.00;;;;;;21551598;22;20033;-85
2023/07/30 02:48:48;;;;;;;9.32;3.22;;;16.60;1.00;;;;;;20919131;28;20044;-84
2023/07/30 02:58:49;;;;;;;13.98;3.08;;;16.60;1.00;;;;;;20853146;28;20036;-85
2023/07/30 03:08:50;;;;;;;12.57;3.13;;;16.50;4.30;;;;;;20859419;28;20029;-84
2023/07/30 03:19:03;;;;;;;12.75;3.85;;;16.30;18.60;;;;;;20902066;28;20040;-87
2023/07/30 03:29:04;;;;;;;12.82;3.78;;;16.30;26.30;;;;;;20901504;28;20017;-84
2023/07/30 03:39:06;;;;;;;15.10;4.65;;;16.30;40.80;;;;;;20902098;28;20048;-85
2023/07/30 03:49:07;;;;;;;15.50;3.42;;;16.20;57.20;;;;;;20901132;28;20044;-84
2023/07/30 03:59:08;;;;;;;18.60;4.93;;;16.20;77.90;;;;;;20840044;28;20376;-85
2023/07/30 04:09:09;;;;;;;18.20;4.15;;;16.20;92.80;;;;;;20893834;28;20025;-83
2023/07/30 04:19:10;;;;;;;19.35;4.75;;;16.20;98.20;;;;;;20923171;28;20127;-82
2023/07/30 04:29:11;;;;;;;24.75;4.75;;;16.30;99.90;;;;;;20925000;28;20112;-83
2023/07/30 04:39:12;;;;;;;22.05;5.38;;;16.40;99.90;;;;;;20921317;28;20037;-83
2023/07/30 04:49:13;;;;;;;16.20;4.75;;;16.40;99.90;;;;;;20909757;28;20037;-83
2023/07/30 04:59:14;;;;;;;20.70;5.22;;;16.30;99.90;;;;;;20919176;28;20033;-83
2023/07/30 05:09:15;;;;;;;23.23;6.05;;;16.40;99.90;;;;;;20919168;28;20033;-83
2023/07/30 05:19:17;;;;;;;21.45;5.93;;;16.50;99.90;;;;;;20906423;28;20044;-81
2023/07/30 05:29:18;;;;;;;24.33;5.55;;;16.40;99.90;;;;;;20916590;28;20056;-82
2023/07/30 05:39:19;;;;;;;22.73;5.78;;;16.60;99.90;;;;;;20889844;28;20052;-81
2023/07/30 05:49:20;;;;;;;19.83;5.25;;;16.70;99.90;;;;;;20918927;28;20131;-81
2023/07/30 05:59:21;;;;;;;15.90;6.10;;;16.80;99.90;;;;;;20920234;28;20128;-81
2023/07/30 06:09:22;;;;;;;31.40;7.55;;;16.90;99.90;;;;;;20920593;28;20028;-81
2023/07/30 06:19:23;;;;;;;19.42;6.45;;;17.10;99.90;;;;;;20921501;28;20033;-82
2023/07/30 06:29:24;;;;;;;21.10;6.47;;;17.10;99.90;;;;;;20917425;28;20029;-82
2023/07/30 06:39:26;;;;;;;18.95;6.10;;;17.10;93.50;;;;;;20868443;28;20038;-81
2023/07/30 06:49:28;;;;;;;17.60;6.43;;;17.30;66.10;;;;;;20831192;28;20026;-82
2023/07/30 06:59:29;;;;;;;15.63;5.20;;;17.10;53.20;;;;;;20845767;28;20093;-81
2023/07/30 07:09:30;;;;;;;17.83;3.90;;;17.30;61.40;;;;;;20828628;28;20040;-81
2023/07/30 07:19:36;;;;;;;20.10;3.75;;;17.50;44.50;;;;;;20829007;28;20037;-82
2023/07/30 07:29:37;;;;;;;11.23;2.90;;;17.90;3.70;;;;;;20827514;28;20064;-82
2023/07/30 07:39:38;;;;;;;15.18;3.08;;;18.00;1.00;;;;;;20894454;28;20056;-82
2023/07/30 07:49:39;;;;;;;19.13;4.13;;;17.90;1.00;;;;;;20926774;28;20028;-83
2023/07/30 07:59:44;;;;;;;17.90;3.10;;;17.90;1.00;;;;;;20925692;28;20033;-83
2023/07/30 08:09:45;;;;;;;19.77;4.22;;;17.60;1.00;;;;;;20907819;28;20471;-82
2023/07/30 08:19:46;;;;;;;15.30;4.65;;;17.30;23.90;;;;;;20923937;28;20040;-83
2023/07/30 08:29:47;;;;;;;17.70;5.07;;;16.70;99.90;;;;;;20919897;28;20051;-83
2023/07/30 08:39:48;;;;;;;15.48;4.65;;;16.70;99.90;;;;;;20919558;28;20033;-83
2023/07/30 08:49:50;;;;;;;11.05;3.25;;;17.00;99.90;;;;;;20918937;28;20028;-83
2023/07/30 09:00:01;;;;;;;8.45;1.60;;;17.00;99.90;;;;;;20932651;28;20036;-83
2023/07/30 09:10:03;;;;;;;8.57;1.88;;;17.00;19.10;;;;;;20929248;28;20515;-83
2023/07/30 09:20:06;;;;;;;7.38;1.83;;;16.90;6.40;;;;;;20905759;28;20052;-82
2023/07/30 09:30:07;;;;;;;10.32;2.00;;;17.30;10.20;;;;;;20913464;28;20025;-82
2023/07/30 09:40:13;;;;;;;9.55;1.85;;;18.20;1.00;;;;;;20912731;28;20041;-82
2023/07/30 09:50:15;;;;;;;7.97;2.05;;;19.00;1.00;;;;;;20913345;28;20037;-82
2023/07/30 10:00:16;;;;;;;9.68;2.05;;;19.50;1.00;;;;;;20909634;28;20033;-82
2023/07/30 10:10:19;;;;;;;6.22;1.55;;;19.90;1.00;;;;;;20911725;28;20495;-82
2023/07/30 10:20:26;;;;;;;6.68;1.55;;;20.70;1.00;;;;;;20909593;28;20033;-82
2023/07/30 10:30:32;;;;;;;9.52;1.50;;;21.00;1.00;;;;;;20928361;28;20029;-82
2023/07/30 10:40:33;;;;;;;7.10;1.20;;;21.50;1.00;;;;;;20867946;22;20053;-43
2023/07/30 10:50:37;;;;;;;7.00;1.50;;;21.00;1.00;;;;;;20862481;28;20462;-43
2023/07/30 11:00:38;;;;;;;5.85;1.20;;;20.60;1.00;;;;;;20863695;28;20040;-43
2023/07/30 11:10:47;;;;;;;6.10;1.08;;;20.50;1.00;;;;;;20872202;28;20575;-43
2023/07/30 11:20:49;;;;;;;7.03;1.38;;;20.50;1.00;;;;;;20880645;28;20049;-43
2023/07/30 11:30:51;;;;;;;7.45;1.40;;;20.60;1.00;;;;;;20880838;28;20307;-43
2023/07/30 11:40:53;;;;;;;4.20;1.42;;;20.90;1.00;;;;;;20856521;28;20036;-43
2023/07/30 11:50:54;;;;;;;6.75;1.17;;;20.80;1.00;;;;;;20877436;28;20036;-43
2023/07/30 12:00:55;;;;;;;4.25;0.80;;;20.90;1.00;;;;;;20877624;28;20041;-43
2023/07/30 12:11:02;;;;;;;4.05;0.77;;;22.00;1.00;;;;;;20873758;28;20044;-43
2023/07/30 12:21:04;;;;;;;5.20;1.20;;;22.00;1.00;;;;;;20872923;28;20240;-43
2023/07/30 12:31:06;;;;;;;5.28;1.00;;;22.20;1.00;;;;;;20872400;28;20416;-43
2023/07/30 12:41:07;;;;;;;7.32;1.08;;;21.90;1.00;;;;;;20872843;28;20037;-43
2023/07/30 12:51:08;;;;;;;3.28;0.55;;;22.60;1.00;;;;;;20872771;28;20524;-43
2023/07/30 13:01:09;;;;;;;3.15;0.55;;;22.60;1.00;;;;;;20846743;28;20041;-43
2023/07/30 13:11:10;;;;;;;5.40;0.55;;;22.30;1.00;;;;;;20870561;28;20313;-43
2023/07/30 13:21:11;;;;;;;3.08;0.80;;;21.70;1.00;;;;;;20871232;28;20049;-43
2023/07/30 13:31:12;;;;;;;5.78;1.35;;;22.10;1.00;;;;;;20871414;28;20178;-43
2023/07/30 13:41:13;;;;;;;5.30;0.93;;;22.50;1.00;;;;;;20869467;28;20053;-44
2023/07/30 13:51:14;;;;;;;5.95;1.00;;;23.10;1.00;;;;;;20868441;28;20698;-44
2023/07/30 14:01:15;;;;;;;6.75;1.63;;;22.20;1.00;;;;;;20867486;28;20131;-43
2023/07/30 14:11:16;;;;;;;4.32;1.40;;;21.80;1.00;;;;;;20865576;28;20045;-44
2023/07/30 14:21:17;;;;;;;6.32;1.00;;;21.50;1.00;;;;;;20867281;28;20040;-44
2023/07/30 14:31:18;;;;;;;7.53;1.20;;;21.40;1.00;;;;;;20863751;28;20044;-43
2023/07/30 14:41:19;;;;;;;12.65;2.30;;;21.50;1.00;;;;;;20862302;28;20045;-44
2023/07/30 14:51:20;;;;;;;7.53;1.70;;;21.80;1.00;;;;;;20865406;28;20044;-43
2023/07/30 15:01:22;;;;;;;4.63;1.35;;;21.70;1.00;;;;;;20862353;28;20499;-44
2023/07/30 15:11:23;;;;;;;7.70;1.50;;;21.40;1.00;;;;;;20863296;28;20053;-44
2023/07/30 15:21:25;;;;;;;8.13;1.70;;;21.10;1.00;;;;;;20856089;28;20041;-44
2023/07/30 15:31:26;;;;;;;9.70;2.17;;;21.00;1.00;;;;;;20825340;28;20311;-44
2023/07/30 15:41:27;;;;;;;9.15;2.03;;;20.90;1.00;;;;;;20820825;28;20044;-43
2023/07/30 15:51:28;;;;;;;12.30;2.80;;;21.00;1.00;;;;;;20824232;28;20524;-43
2023/07/30 16:01:29;;;;;;;11.73;2.53;;;20.90;1.00;;;;;;20836329;28;20627;-43
2023/07/30 16:11:31;;;;;;;8.60;2.15;;;21.00;1.00;;;;;;20833879;28;20040;-43
2023/07/30 16:21:34;;;;;;;15.20;3.30;;;21.00;1.00;;;;;;20839313;28;20523;-44
2023/07/30 16:31:35;;;;;;;10.88;2.90;;;21.00;1.00;;;;;;20844895;28;21484;-43
2023/07/30 16:41:36;;;;;;;10.77;3.13;;;20.80;1.00;;;;;;20859297;28;20493;-43
2023/07/30 16:51:38;;;;;;;6.95;1.90;;;20.70;1.00;;;;;;20870797;28;20051;-43
2023/07/30 17:01:39;;;;;;;4.95;1.10;;;20.50;1.00;;;;;;20839709;28;20048;-43
2023/07/30 17:11:40;;;;;;;6.57;1.13;;;20.30;1.00;;;;;;20822167;28;20040;-44
2023/07/30 17:21:41;;;;;;;3.92;1.40;;;20.10;1.00;;;;;;20826295;28;20088;-44
2023/07/30 17:31:42;;;;;;;6.75;1.60;;;19.90;1.00;;;;;;20839156;28;20046;-44
2023/07/30 17:41:43;;;;;;;5.57;1.98;;;19.70;1.00;;;;;;20841204;28;20087;-44
2023/07/30 17:51:44;;;;;;;4.10;1.77;;;19.50;1.00;;;;;;20830307;28;20045;-44
2023/07/30 18:01:45;;;;;;;4.35;1.55;;;19.30;1.00;;;;;;20819488;28;20044;-44
2023/07/30 18:11:46;;;;;;;4.93;1.60;;;19.20;1.00;;;;;;20832570;28;21633;-44
2023/07/30 18:21:47;;;;;;;8.43;2.40;;;19.00;1.00;;;;;;20836486;28;20472;-44
2023/07/30 18:31:48;;;;;;;4.20;1.58;;;18.80;1.00;;;;;;20830012;28;20032;-44
2023/07/30 18:41:51;;;;;;;3.25;1.58;;;18.80;1.00;;;;;;20821973;28;20060;-43
2023/07/30 18:51:52;;;;;;;7.03;1.65;;;18.70;1.00;;;;;;20836744;28;20037;-44
2023/07/30 19:01:53;;;;;;;4.32;2.05;;;18.70;1.00;;;;;;20850600;28;20044;-44
2023/07/30 19:11:54;;;;;;;4.65;1.85;;;18.50;1.00;;;;;;20829782;28;20397;-44
2023/07/30 19:21:55;;;;;;;4.53;2.15;;;18.40;1.00;;;;;;20836611;28;20668;-44
2023/07/30 19:31:56;;;;;;;6.50;2.35;;;18.20;25.70;;;;;;20846374;28;20033;-44
2023/07/30 19:41:57;;;;;;;4.25;1.90;;;17.70;91.10;;;;;;20850133;28;20049;-44
2023/07/30 19:51:58;;;;;;;5.40;2.42;;;17.50;99.90;;;;;;20845344;28;21289;-43
2023/07/30 20:02:00;;;;;;;3.45;2.22;;;17.30;99.90;;;;;;20842699;28;20052;-43
2023/07/30 20:12:02;;;;;;;4.80;1.73;;;17.10;99.90;;;;;;20844136;28;20037;-44
2023/07/30 20:22:03;;;;;;;4.03;1.42;;;16.80;99.90;;;;;;20850649;28;20411;-44
2023/07/30 20:32:05;;;;;;;2.65;1.00;;;16.60;99.90;;;;;;20848040;28;20048;-44
2023/07/30 20:42:06;;;;;;;4.07;1.50;;;16.40;99.90;;;;;;20834773;28;20041;-44
2023/07/30 20:52:07;;;;;;;5.70;1.45;;;16.40;99.90;;;;;;20838683;28;20060;-44
2023/07/30 21:02:09;;;;;;;3.72;1.40;;;16.30;99.90;;;;;;20843020;28;20049;-43
2023/07/30 21:12:10;;;;;;;3.47;1.23;;;16.10;99.90;;;;;;20842935;28;20041;-44
2023/07/30 21:22:11;;;;;;;3.13;1.35;;;16.00;99.90;;;;;;20835427;28;20532;-44
2023/07/30 21:32:13;;;;;;;3.35;1.48;;;16.10;99.90;;;;;;20841139;28;20043;-43
2023/07/30 21:42:14;;;;;;;3.25;1.40;;;16.00;99.90;;;;;;20837431;28;20056;-44
2023/07/30 21:52:26;;;;;;;4.35;1.90;;;15.90;99.90;;;;;;20839815;28;20052;-44
2023/07/30 22:02:27;;;;;;;7.38;2.10;;;15.80;99.90;;;;;;20837732;28;20392;-44
2023/07/30 22:12:28;;;;;;;5.72;2.33;;;15.70;99.90;;;;;;20838800;28;20044;-44
2023/07/30 22:22:29;;;;;;;3.80;1.98;;;15.60;99.90;;;;;;20835100;28;20037;-45
2023/07/30 22:32:30;;;;;;;5.72;1.92;;;15.50;99.90;;;;;;20833765;28;20396;-44
2023/07/30 22:42:31;;;;;;;3.10;1.67;;;15.50;99.90;;;;;;20831140;28;20048;-44
2023/07/30 22:52:32;;;;;;;4.18;2.28;;;15.50;99.90;;;;;;20835621;28;20552;-44
2023/07/30 23:02:33;;;;;;;3.53;1.90;;;15.40;99.90;;;;;;20830896;28;20106;-44
2023/07/30 23:12:34;;;;;;;3.10;2.00;;;15.50;99.90;;;;;;20830794;28;21524;-44
2023/07/30 23:22:36;;;;;;;3.38;1.40;;;15.50;99.90;;;;;;20831890;28;20039;-44
2023/07/30 23:32:37;;;;;;;6.30;2.42;;;15.60;99.90;;;;;;20840969;28;20500;-42
2023/07/30 23:42:38;;;;;;;4.22;2.25;;;15.60;99.90;;;;;;20844259;28;20929;-42
2023/07/30 23:52:39;;;;;;;8.35;2.88;;;15.70;99.90;;;;;;20833624;28;20033;-42
